createdAt,value
2023-03-06T00:02:40.598Z,3.89
2023-03-06T00:05:43.537Z,3.91
2023-03-06T00:08:46.146Z,3.92
2023-03-06T00:11:49.102Z,4.00
2023-03-06T00:14:51.701Z,3.96
2023-03-06T00:17:55.858Z,4.01
2023-03-06T00:20:58.505Z,3.89
2023-03-06T00:24:01.361Z,3.73
2023-03-06T00:27:04.095Z,3.75
2023-03-06T00:30:14.232Z,3.60
2023-03-06T00:33:17.916Z,3.73
2023-03-06T00:36:20.907Z,3.77
2023-03-06T00:39:23.641Z,3.79
2023-03-06T00:42:27.191Z,3.89
2023-03-06T00:45:29.985Z,3.55
2023-03-06T00:48:34.033Z,3.83
2023-03-06T00:51:37.130Z,3.88
2023-03-06T00:54:40.338Z,3.64
2023-03-06T00:57:42.999Z,3.66
2023-03-06T01:00:46.310Z,3.56
2023-03-06T01:03:49.028Z,3.55
2023-03-06T01:06:52.042Z,3.41
2023-03-06T01:09:54.789Z,3.43
2023-03-06T01:12:57.766Z,3.49
2023-03-06T01:16:09.872Z,3.50
2023-03-06T01:19:12.728Z,3.58
2023-03-06T01:22:15.378Z,3.73
2023-03-06T01:25:18.290Z,3.48
2023-03-06T01:28:20.894Z,3.48
2023-03-06T01:31:25.053Z,3.49
2023-03-06T01:34:27.860Z,3.51
2023-03-06T01:37:30.865Z,3.40
2023-03-06T01:40:36.208Z,3.58
2023-03-06T01:43:42.460Z,3.75
2023-03-06T01:46:46.278Z,3.68
2023-03-06T01:49:49.517Z,3.72
2023-03-06T01:52:56.440Z,3.62
2023-03-06T01:55:59.485Z,3.55
2023-03-06T01:59:02.743Z,3.51
2023-03-06T02:02:08.507Z,3.68
2023-03-06T02:05:12.205Z,3.81
2023-03-06T02:08:19.148Z,3.53
2023-03-06T02:11:24.962Z,3.43
2023-03-06T02:14:28.059Z,3.50
2023-03-06T02:17:30.997Z,3.43
2023-03-06T02:20:46.043Z,3.67
2023-03-06T02:23:51.525Z,3.36
2023-03-06T02:26:55.805Z,3.26
2023-03-06T02:29:58.974Z,3.53
2023-03-06T02:33:03.185Z,3.48
2023-03-06T02:36:07.737Z,3.48
2023-03-06T02:39:11.291Z,3.39
2023-03-06T02:42:25.999Z,3.41
2023-03-06T02:45:50.196Z,3.38
2023-03-06T02:48:53.295Z,3.29
2023-03-06T02:51:57.530Z,3.45
2023-03-06T02:55:00.438Z,3.09
2023-03-06T02:58:03.655Z,2.91
2023-03-06T03:01:07.566Z,2.82
2023-03-06T03:04:10.570Z,3.24
2023-03-06T03:07:14.882Z,3.31
2023-03-06T03:10:18.243Z,3.36
2023-03-06T03:13:21.374Z,3.37
2023-03-06T03:16:24.465Z,3.22
2023-03-06T03:19:27.339Z,3.10
2023-03-06T03:22:30.706Z,3.18
2023-03-06T03:25:33.605Z,3.38
2023-03-06T03:28:36.568Z,3.20
2023-03-06T03:31:40.323Z,3.10
2023-03-06T03:34:43.110Z,3.09
2023-03-06T03:37:46.105Z,3.01
2023-03-06T03:40:49.741Z,2.95
2023-03-06T03:43:53.187Z,3.01
2023-03-06T03:46:56.115Z,2.81
2023-03-06T03:49:59.930Z,2.50
2023-03-06T03:53:02.878Z,2.32
2023-03-06T03:56:06.236Z,2.19
2023-03-06T03:59:09.756Z,2.38
2023-03-06T04:02:13.320Z,2.22
2023-03-06T04:05:17.212Z,1.97
2023-03-06T04:08:22.047Z,1.83
2023-03-06T04:11:25.182Z,1.75
2023-03-06T04:14:28.966Z,2.03
2023-03-06T04:17:34.232Z,2.11
2023-03-06T04:20:37.602Z,2.19
2023-03-06T04:23:40.659Z,2.01
2023-03-06T04:26:43.513Z,1.66
2023-03-06T04:29:46.777Z,1.55
2023-03-06T04:32:49.547Z,1.39
2023-03-06T04:35:53.014Z,1.30
2023-03-06T04:38:56.473Z,1.18
2023-03-06T04:41:59.597Z,1.57
2023-03-06T04:45:02.371Z,1.44
2023-03-06T04:48:06.207Z,1.31
2023-03-06T04:51:12.230Z,1.35
2023-03-06T04:54:15.104Z,1.05
2023-03-06T04:57:17.786Z,1.05
2023-03-06T05:00:23.275Z,1.18
2023-03-06T05:03:26.353Z,1.06
2023-03-06T05:06:29.320Z,1.02
2023-03-06T05:09:34.161Z,1.09
2023-03-06T05:12:37.929Z,1.19
2023-03-06T05:15:41.231Z,1.04
2023-03-06T05:18:44.532Z,0.96
2023-03-06T05:21:47.213Z,1.02
2023-03-06T05:24:50.241Z,1.25
2023-03-06T05:27:52.897Z,1.11
2023-03-06T05:30:56.339Z,1.23
2023-03-06T05:33:59.597Z,1.18
2023-03-06T05:37:02.438Z,1.29
2023-03-06T05:40:06.868Z,1.36
2023-03-06T05:43:11.865Z,1.46
2023-03-06T05:46:14.512Z,1.42
2023-03-06T05:49:18.097Z,1.52
2023-03-06T05:52:21.009Z,2.32
2023-03-06T05:55:24.479Z,2.37
2023-03-06T05:58:28.289Z,2.36
2023-03-06T06:01:33.671Z,2.46
2023-03-06T06:04:36.736Z,2.70
2023-03-06T06:07:39.723Z,2.91
2023-03-06T06:10:43.064Z,3.02
2023-03-06T06:13:47.885Z,3.17
2023-03-06T06:16:51.250Z,3.30
2023-03-06T06:19:53.924Z,3.86
2023-03-06T06:22:56.985Z,3.84
2023-03-06T06:26:05.317Z,4.08
2023-03-06T06:29:09.303Z,4.46
2023-03-06T06:32:12.130Z,4.55
2023-03-06T06:35:15.273Z,4.75
2023-03-06T06:38:18.447Z,5.04
2023-03-06T06:44:44.536Z,5.74
2023-03-06T06:47:49.892Z,5.70
2023-03-06T06:50:57.023Z,5.45
2023-03-06T06:54:01.016Z,5.55
2023-03-06T06:57:03.658Z,5.51
2023-03-06T07:00:09.860Z,5.46
2023-03-06T07:03:13.049Z,5.59
2023-03-06T07:06:16.974Z,5.89
2023-03-06T07:09:20.239Z,5.91
2023-03-06T07:12:23.474Z,6.15
2023-03-06T07:15:27.210Z,6.16
2023-03-06T07:18:30.315Z,6.22
2023-03-06T07:21:33.175Z,6.28
2023-03-06T07:24:36.080Z,6.32
2023-03-06T07:27:38.769Z,6.44
2023-03-06T07:30:41.979Z,6.61
2023-03-06T07:33:44.788Z,6.76
2023-03-06T07:36:48.175Z,6.69
2023-03-06T07:39:50.784Z,6.79
2023-03-06T07:43:12.938Z,6.65
2023-03-06T07:46:23.071Z,6.72
2023-03-06T07:49:26.356Z,7.08
2023-03-06T07:52:29.655Z,7.09
2023-03-06T07:55:32.634Z,7.15
2023-03-06T07:58:36.743Z,7.43
2023-03-06T08:01:40.371Z,7.54
2023-03-06T08:04:43.754Z,7.59
2023-03-06T08:07:46.419Z,7.87
2023-03-06T08:10:49.377Z,7.96
2023-03-06T08:13:53.063Z,8.24
2023-03-06T08:16:56.563Z,8.23
2023-03-06T08:20:05.904Z,8.25
2023-03-06T08:23:09.050Z,8.58
2023-03-06T08:26:18.896Z,8.63
2023-03-06T08:29:21.816Z,8.44
2023-03-06T08:32:25.198Z,8.90
2023-03-06T08:35:28.293Z,8.74
2023-03-06T08:38:31.042Z,8.64
2023-03-06T08:41:37.908Z,8.79
2023-03-06T08:44:40.554Z,8.60
2023-03-06T08:47:43.558Z,8.68
2023-03-06T08:50:46.245Z,8.71
2023-03-06T08:53:50.385Z,8.90
2023-03-06T08:56:53.922Z,9.01
2023-03-06T08:59:56.984Z,8.77
2023-03-06T09:02:59.818Z,8.67
2023-03-06T09:06:02.764Z,8.81
2023-03-06T09:09:06.446Z,8.82
2023-03-06T09:12:09.432Z,9.05
2023-03-06T09:15:13.033Z,9.15
2023-03-06T09:18:16.065Z,9.31
2023-03-06T09:21:20.738Z,9.32
2023-03-06T09:24:23.660Z,9.36
2023-03-06T09:27:28.311Z,9.57
2023-03-06T09:30:31.298Z,9.82
2023-03-06T09:33:34.622Z,10.00
2023-03-06T09:36:53.382Z,10.22
2023-03-06T09:39:57.958Z,9.90
2023-03-06T09:43:00.994Z,10.04
2023-03-06T09:46:32.530Z,9.99
2023-03-06T09:49:57.584Z,9.85
2023-03-06T09:53:38.258Z,10.28
2023-03-06T09:56:48.228Z,10.30
2023-03-06T09:59:55.564Z,10.51
2023-03-06T10:03:01.422Z,11.04
2023-03-06T10:06:30.202Z,11.45
2023-03-06T10:09:48.234Z,11.55
2023-03-06T10:13:00.674Z,11.66
2023-03-06T10:16:22.587Z,11.47
2023-03-06T10:19:33.138Z,11.68
2023-03-06T10:22:46.070Z,11.69
2023-03-06T10:26:20.401Z,11.56
2023-03-06T10:30:03.658Z,11.79
2023-03-06T10:33:16.371Z,11.89
2023-03-06T10:36:21.650Z,12.13
2023-03-06T10:39:24.751Z,11.42
2023-03-06T10:42:28.935Z,11.97
2023-03-06T10:45:47.236Z,12.01
2023-03-06T10:48:58.571Z,11.59
2023-03-06T10:52:19.170Z,12.02
2023-03-06T10:55:26.979Z,12.32
2023-03-06T10:58:33.563Z,12.39
2023-03-06T11:01:57.272Z,12.58
2023-03-06T11:05:01.570Z,12.24
2023-03-06T11:08:04.778Z,12.26
2023-03-06T11:11:09.765Z,12.38
2023-03-06T11:14:18.321Z,12.44
2023-03-06T11:17:32.252Z,12.23
2023-03-06T11:20:51.035Z,12.55
2023-03-06T11:24:00.543Z,12.55
2023-03-06T11:27:34.439Z,12.07
2023-03-06T11:30:48.247Z,12.09
2023-03-06T11:34:16.472Z,12.06
2023-03-06T11:37:51.480Z,12.07
2023-03-06T11:40:59.272Z,12.13
2023-03-06T11:44:26.164Z,12.51
2023-03-06T11:47:44.309Z,12.67
2023-03-06T11:50:55.491Z,12.71
2023-03-06T11:54:00.531Z,12.58
2023-03-06T11:57:15.674Z,12.81
2023-03-06T12:00:53.229Z,12.51
2023-03-06T12:04:02.615Z,12.56
2023-03-06T12:07:27.096Z,12.73
2023-03-06T12:10:37.400Z,12.84
2023-03-06T12:13:39.974Z,12.66
2023-03-06T12:16:53.233Z,13.02
2023-03-06T12:19:59.474Z,12.70
2023-03-06T12:23:22.571Z,12.70
2023-03-06T12:26:53.148Z,12.82
2023-03-06T12:30:11.403Z,12.82
2023-03-06T12:33:24.814Z,13.19
2023-03-06T12:36:44.291Z,13.04
2023-03-06T12:40:07.036Z,13.27
2023-03-06T12:43:34.203Z,13.45
2023-03-06T12:46:45.119Z,13.36
2023-03-06T12:49:55.976Z,13.26
2023-03-06T12:53:03.245Z,13.46
2023-03-06T12:56:07.420Z,13.19
2023-03-06T12:59:47.195Z,13.08
2023-03-06T13:02:52.972Z,13.16
2023-03-06T13:06:24.801Z,13.30
2023-03-06T13:09:55.398Z,13.03
2023-03-06T13:13:44.993Z,12.97
2023-03-06T13:16:48.257Z,13.04
2023-03-06T13:20:15.710Z,12.99
2023-03-06T13:23:33.440Z,12.71
2023-03-06T13:26:36.257Z,13.06
2023-03-06T13:29:39.162Z,12.77
2023-03-06T13:32:41.925Z,12.74
2023-03-06T13:35:53.000Z,12.60
2023-03-06T13:39:04.930Z,12.42
2023-03-06T13:42:27.346Z,12.04
2023-03-06T13:45:33.354Z,11.90
2023-03-06T13:48:44.735Z,11.86
2023-03-06T13:51:53.960Z,11.70
2023-03-06T13:55:11.363Z,11.64
2023-03-06T13:58:29.267Z,11.65
2023-03-06T14:01:48.552Z,11.73
2023-03-06T14:05:15.330Z,11.68
2023-03-06T14:08:24.746Z,11.75
2023-03-06T14:11:30.005Z,11.82
2023-03-06T14:14:42.166Z,12.08
2023-03-06T14:17:54.247Z,12.07
2023-03-06T14:21:14.247Z,11.67
2023-03-06T14:24:20.313Z,11.64
2023-03-06T14:27:39.316Z,11.42
2023-03-06T14:30:50.947Z,11.12
2023-03-06T14:33:56.529Z,11.20
2023-03-06T14:37:07.675Z,10.94
2023-03-06T14:40:11.543Z,10.70
2023-03-06T14:43:24.644Z,10.54
2023-03-06T14:46:27.510Z,10.40
2023-03-06T14:49:30.451Z,10.17
2023-03-06T14:52:33.598Z,10.07
2023-03-06T14:55:36.775Z,10.05
2023-03-06T14:58:55.897Z,9.98
2023-03-06T15:02:07.704Z,10.14
2023-03-06T15:05:22.816Z,9.92
2023-03-06T15:08:30.565Z,9.89
2023-03-06T15:12:02.278Z,9.68
2023-03-06T15:15:08.456Z,9.60
2023-03-06T15:18:48.764Z,9.63
2023-03-06T15:21:52.629Z,9.48
2023-03-06T15:25:21.221Z,9.36
2023-03-06T15:28:30.336Z,9.22
2023-03-06T15:31:33.197Z,9.05
2023-03-06T15:34:36.205Z,8.80
2023-03-06T15:37:38.758Z,8.82
2023-03-06T15:40:55.104Z,8.89
2023-03-06T15:43:59.121Z,8.62
2023-03-06T15:47:09.082Z,8.63
2023-03-06T15:50:22.517Z,8.56
2023-03-06T15:53:25.708Z,8.58
2023-03-06T15:56:31.893Z,8.39
2023-03-06T15:59:43.161Z,8.34
2023-03-06T16:02:45.781Z,8.26
2023-03-06T16:05:48.730Z,8.09
2023-03-06T16:08:52.810Z,7.97
2023-03-06T16:11:56.048Z,8.11
2023-03-06T16:15:01.179Z,8.26
2023-03-06T16:18:06.750Z,8.25
2023-03-06T16:21:09.393Z,8.24
2023-03-06T16:24:15.963Z,8.10
2023-03-06T16:27:19.876Z,7.95
2023-03-06T16:30:26.753Z,7.93
2023-03-06T16:33:29.699Z,8.02
2023-03-06T16:36:32.738Z,7.61
2023-03-06T16:39:35.446Z,7.86
2023-03-06T16:42:38.582Z,7.83
2023-03-06T16:45:42.347Z,7.90
2023-03-06T16:48:47.200Z,7.91
2023-03-06T16:51:51.509Z,7.93
2023-03-06T16:54:54.536Z,7.86
2023-03-06T16:57:57.438Z,7.94
2023-03-06T17:01:00.682Z,7.82
2023-03-06T17:04:03.698Z,7.85
2023-03-06T17:07:06.857Z,7.90
2023-03-06T17:10:12.896Z,7.73
2023-03-06T17:13:15.996Z,7.76
2023-03-06T17:16:18.714Z,7.72
2023-03-06T17:19:22.117Z,7.69
2023-03-06T17:22:25.091Z,7.79
2023-03-06T17:25:28.527Z,7.78
2023-03-06T17:28:31.475Z,7.89
2023-03-06T17:31:34.450Z,7.91
2023-03-06T17:34:37.347Z,7.82
2023-03-06T17:37:40.682Z,7.74
2023-03-06T17:40:43.441Z,7.81
2023-03-06T17:43:46.626Z,7.75
2023-03-06T17:46:50.174Z,7.65
2023-03-06T17:49:53.333Z,7.64
2023-03-06T17:52:55.942Z,7.68
2023-03-06T17:55:59.372Z,7.61
2023-03-06T17:59:02.042Z,7.74
2023-03-06T18:02:06.543Z,7.66
2023-03-06T18:05:09.908Z,7.65
2023-03-06T18:08:13.272Z,7.60
2023-03-06T18:11:16.824Z,7.56
2023-03-06T18:14:19.646Z,7.54
2023-03-06T18:17:25.389Z,7.61
2023-03-06T18:20:29.713Z,7.54
2023-03-06T18:23:33.605Z,7.50
2023-03-06T18:26:42.322Z,7.55
2023-03-06T18:29:45.271Z,7.55
2023-03-06T18:32:48.070Z,7.52
2023-03-06T18:35:51.318Z,7.50
2023-03-06T18:38:54.678Z,7.44
2023-03-06T18:41:57.907Z,7.50
2023-03-06T18:45:00.627Z,7.45
2023-03-06T18:48:05.844Z,7.46
2023-03-06T18:51:10.760Z,7.44
2023-03-06T18:54:13.867Z,7.42
2023-03-06T18:57:16.796Z,7.30
2023-03-06T19:00:20.625Z,7.35
2023-03-06T19:03:23.378Z,7.38
2023-03-06T19:06:27.921Z,7.35
2023-03-06T19:09:30.782Z,7.25
2023-03-06T19:12:35.585Z,7.22
2023-03-06T19:15:48.667Z,7.16
2023-03-06T19:18:53.573Z,7.16
2023-03-06T19:22:00.360Z,7.19
2023-03-06T19:25:03.961Z,7.12
2023-03-06T19:28:07.033Z,7.10
2023-03-06T19:31:19.597Z,7.08
2023-03-06T19:34:22.365Z,7.16
2023-03-06T19:37:26.158Z,7.20
2023-03-06T19:40:31.999Z,7.15
2023-03-06T19:43:35.400Z,7.19
2023-03-06T19:46:40.730Z,7.30
2023-03-06T19:49:44.043Z,7.23
2023-03-06T19:52:46.980Z,7.32
2023-03-06T19:55:50.183Z,7.34
2023-03-06T19:58:53.483Z,7.34
2023-03-06T20:01:59.058Z,7.26
2023-03-06T20:05:02.575Z,7.24
2023-03-06T20:08:05.359Z,7.25
2023-03-06T20:11:20.180Z,7.27
2023-03-06T20:14:22.795Z,7.20
2023-03-06T20:17:26.269Z,7.14
2023-03-06T20:20:29.813Z,7.11
2023-03-06T20:23:33.989Z,7.13
2023-03-06T20:26:38.153Z,7.22
2023-03-06T20:29:44.783Z,7.34
2023-03-06T20:32:48.201Z,7.31
2023-03-06T20:35:51.449Z,7.35
2023-03-06T20:38:56.105Z,7.32
2023-03-06T20:42:00.166Z,7.35
2023-03-06T20:45:03.087Z,7.23
2023-03-06T20:48:06.391Z,7.31
2023-03-06T20:51:17.030Z,7.40
2023-03-06T20:54:20.456Z,7.36
2023-03-06T20:57:23.503Z,7.22
2023-03-06T21:00:26.744Z,7.28
2023-03-06T21:03:29.860Z,7.28
2023-03-06T21:06:33.483Z,7.26
2023-03-06T21:09:37.899Z,7.34
2023-03-06T21:12:41.125Z,7.26
2023-03-06T21:15:44.874Z,7.19
2023-03-06T21:18:48.512Z,7.21
2023-03-06T21:21:51.518Z,7.16
2023-03-06T21:24:54.373Z,7.28
2023-03-06T21:27:57.289Z,7.22
2023-03-06T21:31:01.491Z,7.14
2023-03-06T21:34:05.526Z,7.16
2023-03-06T21:37:08.614Z,7.27
2023-03-06T21:40:14.274Z,7.28
2023-03-06T21:43:17.722Z,7.30
2023-03-06T21:46:20.371Z,7.24
2023-03-06T21:49:26.140Z,7.20
2023-03-06T21:52:29.830Z,6.98
2023-03-06T21:55:32.757Z,6.97
2023-03-06T21:58:35.865Z,6.97
2023-03-06T22:01:39.510Z,6.89
2023-03-06T22:04:42.510Z,6.77
2023-03-06T22:07:45.488Z,6.71
2023-03-06T22:10:49.194Z,6.57
2023-03-06T22:13:55.763Z,6.78
2023-03-06T22:16:58.650Z,6.77
2023-03-06T22:20:01.400Z,7.08
2023-03-06T22:23:04.363Z,6.86
2023-03-06T22:26:12.811Z,6.96
2023-03-06T22:29:15.924Z,7.11
2023-03-06T22:32:18.746Z,7.02
2023-03-06T22:35:21.742Z,7.00
2023-03-06T22:38:24.471Z,6.69
2023-03-06T22:41:28.205Z,6.50
2023-03-06T22:44:31.068Z,6.68
2023-03-06T22:47:36.646Z,6.79
2023-03-06T22:50:39.335Z,6.66
2023-03-06T22:53:42.688Z,6.61
2023-03-06T22:56:45.286Z,6.80
2023-03-06T22:59:48.281Z,6.78
2023-03-06T23:02:50.944Z,6.61
2023-03-06T23:05:54.938Z,6.75
2023-03-06T23:09:00.304Z,6.71
2023-03-06T23:12:02.957Z,6.77
2023-03-06T23:15:24.305Z,6.85
2023-03-06T23:18:45.151Z,6.95
2023-03-06T23:22:05.969Z,6.86
2023-03-06T23:25:26.842Z,6.77
2023-03-06T23:28:30.177Z,6.83
2023-03-06T23:31:33.283Z,6.81
2023-03-06T23:34:36.241Z,6.80
2023-03-06T23:37:38.841Z,6.77
2023-03-06T23:40:41.799Z,6.89
2023-03-06T23:43:46.424Z,6.75
2023-03-06T23:46:49.379Z,6.89
2023-03-06T23:49:52.086Z,6.93
2023-03-06T23:52:55.657Z,6.89
2023-03-06T23:55:58.518Z,6.86
2023-03-06T23:59:01.403Z,6.91
